Baltasound, United Kingdom

6:56 PM BST on September 18, 2014 (GMT +0100)
MARITIME | Change Station
CLOSE
Current Station
Personal Weather Station
Location: Cape Wrath,
Elevation: 0 ft
Nearby Weather Stations

Elev 0 ft 58.50 °N, 5.30 °W | Updated 454 days ago

Fog
Fog
55 °F
Feels Like 55 °F
N
17
Wind Variable Wind from SSE
Gusts mph

Today
High -- | Low -- °F
--% Chance of Precip.
Yesterday
High -- | Low -- °F
Precip. -- in
6:36 AM 7:14 PM
Waning Crescent, 25% visible
Pressure 30.04 in
Visibility 6.2 miles
Clouds
Dew Point 55 °F
Humidity 100%
Rainfall -999.00 in
Snow Depth Not available.
UV Not available.
Pollen Not available.
Air Quality Not available.
Flu Activity Not available.
METAR EGPM 181750Z AUTO VRB03KT 9999 NCD 14/12 Q1017

More Conditions Fewer Conditions

Pressure 30.04 in
Visibility 6.2 miles
Clouds
Dew Point 55 °F
Humidity 100%
Rainfall -999.00 in
Snow Depth Not available.
UV Not available.
Pollen Not available.
Air Quality Not available.
Flu Activity Not available.
METAR EGPM 181750Z AUTO VRB03KT 9999 NCD 14/12 Q1017

More Conditions Fewer Conditions

10-Day Weather Forecast

Almanac

Astronomy

Sep. 18, 2014 Rise Set
Actual Time 6:36 AM BST 7:14 PM BST
Civil Twilight 5:53 AM BST 7:57 PM BST
Nautical Twilight 5:01 AM BST 8:49 PM BST
Astronomical Twilight 4:02 AM BST 9:46 PM BST
Moon 12:09 AM BST 4:55 PM BST
Length of Visible Light 14h 03m
Length of Day
12h 38m
Tomorrow will be 5m 30s shorter.
Waning Crescent, 25% of the Moon is Illuminated
Today
Waning Crescent
Sep 24
New
Oct 1
First Quarter
Oct 8
Full
Oct 15
Last Quarter

Today's Extremes

Country Highs Country Lows

Community

WunderPhotos

Upload Photos

1,754,409 photos uploaded!

Nearby

Snow Depth

Not available.

Earthquake Activity

City Distance Mag. Time & Date
No recent earthquake activity has been reported nearby.
Minimum magnitude displayed is 2.5.

Coastal Water Temperatures

Place Temperature
No Stations Reporting

Nearby Weather Stations